createdAt,value
2023-03-30T00:01:19.273Z,100.00
2023-03-30T00:03:47.499Z,100.00
2023-03-30T00:06:21.898Z,100.00
2023-03-30T00:08:58.569Z,100.00
2023-03-30T00:11:26.823Z,100.00
2023-03-30T00:13:53.845Z,100.00
2023-03-30T00:19:23.653Z,100.00
2023-03-30T00:21:50.955Z,100.00
2023-03-30T00:24:17.749Z,100.00
2023-03-30T00:26:44.575Z,100.00
2023-03-30T00:29:11.659Z,100.00
2023-03-30T00:31:38.493Z,100.00
2023-03-30T00:34:05.416Z,100.00
2023-03-30T00:36:37.234Z,100.00
2023-03-30T00:39:08.521Z,100.00
2023-03-30T00:41:37.049Z,100.00
2023-03-30T00:44:28.855Z,100.00
2023-03-30T00:46:56.245Z,100.00
2023-03-30T00:49:23.090Z,100.00
2023-03-30T00:51:50.893Z,100.00
2023-03-30T00:54:20.597Z,100.00
2023-03-30T00:56:47.629Z,100.00
2023-03-30T00:59:14.881Z,100.00
2023-03-30T01:01:42.293Z,100.00
2023-03-30T01:04:12.130Z,100.00
2023-03-30T01:06:40.849Z,100.00
2023-03-30T01:09:08.642Z,100.00
2023-03-30T01:11:35.898Z,100.00
2023-03-30T01:14:06.531Z,100.00
2023-03-30T01:16:47.372Z,100.00
2023-03-30T01:19:32.757Z,100.00
2023-03-30T01:22:22.935Z,100.00
2023-03-30T01:25:06.991Z,100.00
2023-03-30T01:28:00.158Z,100.00
2023-03-30T01:30:39.178Z,100.00
2023-03-30T01:33:31.619Z,100.00
2023-03-30T01:36:17.952Z,100.00
2023-03-30T01:38:44.850Z,100.00
2023-03-30T01:41:20.131Z,100.00
2023-03-30T01:44:03.252Z,100.00
2023-03-30T01:46:40.554Z,100.00
2023-03-30T01:49:17.123Z,100.00
2023-03-30T01:52:20.971Z,100.00
2023-03-30T01:54:58.509Z,100.00
2023-03-30T01:57:50.277Z,100.00
2023-03-30T02:00:20.516Z,100.00
2023-03-30T02:02:59.360Z,100.00
2023-03-30T02:05:28.717Z,100.00
2023-03-30T02:08:03.623Z,100.00
2023-03-30T02:10:35.151Z,100.00
2023-03-30T02:13:03.190Z,100.00
2023-03-30T02:15:39.091Z,100.00
2023-03-30T02:18:06.152Z,100.00
2023-03-30T02:20:34.909Z,100.00
2023-03-30T02:23:06.116Z,100.00
2023-03-30T02:25:36.286Z,100.00
2023-03-30T02:28:03.131Z,100.00
2023-03-30T02:30:40.252Z,100.00
2023-03-30T02:33:10.682Z,100.00
2023-03-30T02:35:48.982Z,100.00
2023-03-30T02:38:25.374Z,100.00
2023-03-30T02:41:05.192Z,100.00
2023-03-30T02:43:53.998Z,100.00
2023-03-30T02:46:23.853Z,100.00
2023-03-30T02:48:51.216Z,100.00
2023-03-30T02:51:35.568Z,99.50
2023-03-30T02:54:58.475Z,99.49
2023-03-30T02:57:48.195Z,99.06
2023-03-30T03:00:54.081Z,98.89
2023-03-30T03:03:33.667Z,98.60
2023-03-30T03:06:02.644Z,98.62
2023-03-30T03:08:39.896Z,98.97
2023-03-30T03:11:10.889Z,98.45
2023-03-30T03:13:39.539Z,98.89
2023-03-30T03:16:11.122Z,99.10
2023-03-30T03:18:44.828Z,100.00
2023-03-30T03:21:16.266Z,98.50
2023-03-30T03:23:43.436Z,97.66
2023-03-30T03:26:11.878Z,98.79
2023-03-30T03:28:38.904Z,97.95
2023-03-30T03:31:08.160Z,96.51
2023-03-30T03:33:35.479Z,96.46
2023-03-30T03:36:12.416Z,96.86
2023-03-30T03:38:46.190Z,95.81
2023-03-30T03:41:14.874Z,96.83
2023-03-30T03:43:44.108Z,96.42
2023-03-30T03:46:11.898Z,96.66
2023-03-30T03:48:39.545Z,96.99
2023-03-30T03:51:06.669Z,95.82
2023-03-30T03:53:35.642Z,97.33
2023-03-30T03:56:06.332Z,96.44
2023-03-30T03:58:34.175Z,96.49
2023-03-30T04:01:02.554Z,96.85
2023-03-30T04:03:30.685Z,96.13
2023-03-30T04:06:02.314Z,96.45
2023-03-30T04:08:29.496Z,96.25
2023-03-30T04:11:08.204Z,96.05
2023-03-30T04:13:55.368Z,95.46
2023-03-30T04:16:35.250Z,94.26
2023-03-30T04:19:19.651Z,93.71
2023-03-30T04:22:07.415Z,94.41
2023-03-30T04:24:52.410Z,93.63
2023-03-30T04:27:57.587Z,93.72
2023-03-30T04:30:45.825Z,93.32
2023-03-30T04:33:35.177Z,92.45
2023-03-30T04:36:43.523Z,93.79
2023-03-30T04:39:39.562Z,92.62
2023-03-30T04:42:37.946Z,91.74
2023-03-30T04:45:25.069Z,90.13
2023-03-30T04:48:24.569Z,90.29
2023-03-30T04:51:04.947Z,88.07
2023-03-30T04:53:55.204Z,87.70
2023-03-30T04:56:53.876Z,85.37
2023-03-30T04:59:38.925Z,85.58
2023-03-30T05:02:41.421Z,82.69
2023-03-30T05:05:26.912Z,83.41
2023-03-30T05:08:13.423Z,80.14
2023-03-30T05:11:02.850Z,78.89
2023-03-30T05:13:45.980Z,74.88
2023-03-30T05:16:36.918Z,74.05
2023-03-30T05:19:18.999Z,72.37
2023-03-30T05:22:15.718Z,71.95
2023-03-30T05:24:57.796Z,71.64
2023-03-30T05:27:46.607Z,69.75
2023-03-30T05:30:43.553Z,70.96
2023-03-30T05:33:13.169Z,68.87
2023-03-30T05:36:10.353Z,69.85
2023-03-30T05:38:48.682Z,70.25
2023-03-30T05:41:44.787Z,70.03
2023-03-30T05:44:34.999Z,71.19
2023-03-30T05:47:22.121Z,68.73
2023-03-30T05:50:04.140Z,69.14
2023-03-30T05:52:44.137Z,67.06
2023-03-30T05:55:22.026Z,68.22
2023-03-30T05:58:16.616Z,67.48
2023-03-30T06:01:00.856Z,65.86
2023-03-30T06:03:34.863Z,67.75
2023-03-30T06:06:02.068Z,66.57
2023-03-30T06:08:30.760Z,64.53
2023-03-30T06:11:01.833Z,65.05
2023-03-30T06:13:35.694Z,62.73
2023-03-30T06:16:03.651Z,62.79
2023-03-30T06:18:31.597Z,63.59
2023-03-30T06:21:09.602Z,61.69
2023-03-30T06:23:51.811Z,62.38
2023-03-30T06:26:21.847Z,61.46
2023-03-30T06:28:49.196Z,58.13
2023-03-30T06:31:16.735Z,56.44
2023-03-30T06:33:45.991Z,57.08
2023-03-30T06:36:15.169Z,60.06
2023-03-30T06:38:45.105Z,56.45
2023-03-30T06:41:12.900Z,55.67
2023-03-30T06:43:43.349Z,59.50
2023-03-30T06:46:15.873Z,55.38
2023-03-30T06:48:48.675Z,50.08
2023-03-30T06:51:37.870Z,47.71
2023-03-30T06:54:07.089Z,51.49
2023-03-30T06:56:38.172Z,47.43
2023-03-30T06:59:09.026Z,40.89
2023-03-30T07:01:55.978Z,38.35
2023-03-30T07:04:39.983Z,37.84
2023-03-30T07:07:18.940Z,35.93
2023-03-30T07:09:46.242Z,35.60
2023-03-30T07:12:13.210Z,31.82
2023-03-30T07:14:40.208Z,30.92
2023-03-30T07:17:08.592Z,29.78
2023-03-30T07:19:36.784Z,33.04
2023-03-30T07:22:04.235Z,33.79
2023-03-30T07:24:31.580Z,32.95
2023-03-30T07:40:10.662Z,32.43
2023-03-30T07:42:41.668Z,26.15
2023-03-30T07:45:09.838Z,25.52
2023-03-30T07:47:37.637Z,25.21
2023-03-30T07:50:05.642Z,24.54
2023-03-30T07:52:33.613Z,24.76
2023-03-30T07:55:03.191Z,22.65
2023-03-30T07:58:01.927Z,22.99
2023-03-30T08:00:28.813Z,22.99
2023-03-30T08:03:15.970Z,22.85
2023-03-30T08:05:43.905Z,22.46
2023-03-30T08:08:17.765Z,22.25
2023-03-30T08:10:46.454Z,23.14
2023-03-30T08:13:13.584Z,22.79
2023-03-30T08:15:40.781Z,21.37
2023-03-30T08:18:08.506Z,21.31
2023-03-30T08:20:37.631Z,21.60
2023-03-30T08:23:05.477Z,20.26
2023-03-30T08:25:33.116Z,19.21
2023-03-30T08:28:00.310Z,20.13
2023-03-30T08:30:27.613Z,21.81
2023-03-30T08:32:54.631Z,20.26
2023-03-30T08:35:22.020Z,19.04
2023-03-30T08:37:49.126Z,18.33
2023-03-30T08:40:19.319Z,19.25
2023-03-30T08:43:03.031Z,20.09
2023-03-30T08:45:43.359Z,19.98
2023-03-30T08:48:19.913Z,20.62
2023-03-30T08:50:59.502Z,19.67
2023-03-30T08:53:29.385Z,18.91
2023-03-30T08:56:07.873Z,18.83
2023-03-30T08:58:46.672Z,18.98
2023-03-30T09:01:23.220Z,19.94
2023-03-30T09:03:56.180Z,17.64
2023-03-30T09:06:38.716Z,18.64
2023-03-30T09:09:06.104Z,18.52
2023-03-30T09:11:36.365Z,17.40
2023-03-30T09:14:06.202Z,18.13
2023-03-30T09:16:50.901Z,16.42
2023-03-30T09:19:25.749Z,15.64
2023-03-30T09:21:54.117Z,16.41
2023-03-30T09:24:26.508Z,16.16
2023-03-30T09:27:09.071Z,17.55
2023-03-30T09:29:49.806Z,19.80
2023-03-30T09:32:33.269Z,18.43
2023-03-30T09:35:04.351Z,19.64
2023-03-30T09:37:31.460Z,21.31
2023-03-30T09:39:59.444Z,20.04
2023-03-30T09:42:59.303Z,18.01
2023-03-30T09:45:33.459Z,19.64
2023-03-30T09:48:05.993Z,21.88
2023-03-30T09:50:44.607Z,17.87
2023-03-30T09:53:40.586Z,17.93
2023-03-30T09:56:11.276Z,16.01
2023-03-30T09:58:38.364Z,18.86
2023-03-30T10:01:14.114Z,18.82
2023-03-30T10:03:43.419Z,16.06
2023-03-30T10:06:18.458Z,17.46
2023-03-30T10:08:54.055Z,16.79
2023-03-30T10:11:31.699Z,16.76
2023-03-30T10:13:59.856Z,18.46
2023-03-30T10:16:32.607Z,17.24
2023-03-30T10:19:02.780Z,16.25
2023-03-30T10:21:32.263Z,16.00
2023-03-30T10:24:18.796Z,19.21
2023-03-30T10:26:46.691Z,18.62
2023-03-30T10:29:18.562Z,17.49
2023-03-30T10:31:48.466Z,18.26
2023-03-30T10:34:18.703Z,18.31
2023-03-30T10:36:50.190Z,21.81
2023-03-30T10:39:33.724Z,20.77
2023-03-30T10:42:03.377Z,18.15
2023-03-30T10:44:35.958Z,17.14
2023-03-30T10:47:46.233Z,19.94
2023-03-30T10:50:18.994Z,19.37
2023-03-30T10:53:16.412Z,17.12
2023-03-30T10:55:45.570Z,16.74
2023-03-30T10:58:30.970Z,18.28
2023-03-30T11:01:03.668Z,22.60
2023-03-30T11:03:32.913Z,20.59
2023-03-30T11:06:23.084Z,19.64
2023-03-30T11:08:53.046Z,17.61
2023-03-30T11:11:44.466Z,20.37
2023-03-30T11:14:26.727Z,20.43
2023-03-30T11:17:02.032Z,17.87
2023-03-30T11:19:35.667Z,16.74
2023-03-30T11:22:12.074Z,16.67
2023-03-30T11:24:41.817Z,16.78
2023-03-30T11:27:22.262Z,17.73
2023-03-30T11:30:09.554Z,19.14
2023-03-30T11:32:44.313Z,21.43
2023-03-30T11:35:28.285Z,23.41
2023-03-30T11:37:58.233Z,24.76
2023-03-30T11:40:31.617Z,26.83
2023-03-30T11:42:58.600Z,26.96
2023-03-30T11:45:40.551Z,27.95
2023-03-30T11:48:31.695Z,27.09
2023-03-30T11:51:23.090Z,27.56
2023-03-30T11:53:53.147Z,27.62
2023-03-30T11:56:29.298Z,28.57
2023-03-30T11:59:17.314Z,28.41
2023-03-30T12:02:36.674Z,27.43
2023-03-30T12:05:11.410Z,28.33
2023-03-30T12:08:14.244Z,28.90
2023-03-30T12:10:43.166Z,28.39
2023-03-30T12:13:15.651Z,29.23
2023-03-30T12:15:49.953Z,29.00
2023-03-30T12:18:29.872Z,29.95
2023-03-30T12:21:26.531Z,28.19
2023-03-30T12:24:06.170Z,28.89
2023-03-30T12:26:35.394Z,29.68
2023-03-30T12:29:48.073Z,28.78
2023-03-30T12:32:04.802Z,27.32
2023-03-30T12:34:35.537Z,27.76
2023-03-30T12:37:18.384Z,28.50
2023-03-30T12:39:59.410Z,29.33
2023-03-30T12:42:35.231Z,29.46
2023-03-30T12:45:23.909Z,27.57
2023-03-30T12:47:50.845Z,28.71
2023-03-30T12:50:37.268Z,28.53
2023-03-30T12:53:25.551Z,29.69
2023-03-30T12:56:26.736Z,28.49
2023-03-30T12:59:33.410Z,28.63
2023-03-30T13:02:39.488Z,28.83
2023-03-30T13:05:30.957Z,29.26
2023-03-30T13:08:04.236Z,29.38
2023-03-30T13:10:31.175Z,29.40
2023-03-30T13:12:59.887Z,28.85
2023-03-30T13:15:34.908Z,28.18
2023-03-30T13:18:23.493Z,29.25
2023-03-30T13:20:56.152Z,28.17
2023-03-30T13:23:23.147Z,27.83
2023-03-30T13:26:07.885Z,27.91
2023-03-30T13:29:04.756Z,27.06
2023-03-30T13:31:44.256Z,26.26
2023-03-30T13:34:38.903Z,25.09
2023-03-30T13:37:24.351Z,25.49
2023-03-30T13:40:07.491Z,26.31
2023-03-30T13:42:46.587Z,28.29
2023-03-30T13:45:33.380Z,28.42
2023-03-30T13:48:27.698Z,28.18
2023-03-30T13:51:00.995Z,28.43
2023-03-30T13:53:31.684Z,28.25
2023-03-30T13:55:58.950Z,27.67
2023-03-30T13:58:32.999Z,28.37
2023-03-30T14:01:04.705Z,27.67
2023-03-30T14:03:40.417Z,27.41
2023-03-30T14:06:13.560Z,28.03
2023-03-30T14:08:45.079Z,27.08
2023-03-30T14:11:26.468Z,27.00
2023-03-30T14:13:54.005Z,25.48
2023-03-30T14:16:26.748Z,25.89
2023-03-30T14:19:27.792Z,25.26
2023-03-30T14:22:11.979Z,25.83
2023-03-30T14:24:38.891Z,27.48
2023-03-30T14:27:16.395Z,27.37
2023-03-30T14:29:48.094Z,27.09
2023-03-30T14:32:17.110Z,27.61
2023-03-30T14:34:52.448Z,26.37
2023-03-30T14:37:22.609Z,25.81
2023-03-30T14:39:55.923Z,29.75
2023-03-30T14:42:26.793Z,34.87
2023-03-30T14:44:57.099Z,37.03
2023-03-30T14:47:26.747Z,39.97
2023-03-30T14:49:58.314Z,41.73
2023-03-30T14:52:31.119Z,44.88
2023-03-30T14:55:08.034Z,45.82
2023-03-30T14:57:39.068Z,46.60
2023-03-30T15:00:20.652Z,48.26
2023-03-30T15:03:00.027Z,49.24
2023-03-30T15:05:32.571Z,48.10
2023-03-30T15:07:59.491Z,48.53
2023-03-30T15:10:29.469Z,48.52
2023-03-30T15:12:57.763Z,48.96
2023-03-30T15:15:29.897Z,50.00
2023-03-30T15:17:57.539Z,50.46
2023-03-30T15:20:29.983Z,49.49
2023-03-30T15:22:57.200Z,49.02
2023-03-30T15:25:35.358Z,48.93
2023-03-30T15:28:20.093Z,48.82
2023-03-30T15:30:52.673Z,49.65
2023-03-30T15:33:24.272Z,50.81
2023-03-30T15:35:53.238Z,50.99
2023-03-30T15:38:29.939Z,51.94
2023-03-30T15:40:56.971Z,51.65
2023-03-30T15:43:29.488Z,52.73
2023-03-30T15:46:01.946Z,52.90
2023-03-30T15:48:43.340Z,53.69
2023-03-30T15:51:33.201Z,53.92
2023-03-30T15:54:12.872Z,53.11
2023-03-30T15:56:47.403Z,54.61
2023-03-30T15:59:17.280Z,54.69
2023-03-30T16:01:47.336Z,55.02
2023-03-30T16:04:20.614Z,55.69
2023-03-30T16:06:47.851Z,55.03
2023-03-30T16:09:16.087Z,54.65
2023-03-30T16:11:45.183Z,54.46
2023-03-30T16:14:15.428Z,54.34
2023-03-30T16:16:42.439Z,54.31
2023-03-30T16:19:14.602Z,54.41
2023-03-30T16:21:42.567Z,54.68
2023-03-30T16:24:11.645Z,54.61
2023-03-30T16:26:38.568Z,55.27
2023-03-30T16:29:13.319Z,55.61
2023-03-30T16:31:40.525Z,56.25
2023-03-30T16:34:07.474Z,56.44
2023-03-30T16:36:34.711Z,56.73
2023-03-30T16:39:01.627Z,57.79
2023-03-30T16:41:28.661Z,58.04
2023-03-30T16:43:55.606Z,58.67
2023-03-30T16:46:22.705Z,59.01
2023-03-30T16:48:50.414Z,58.83
2023-03-30T16:51:17.659Z,59.20
2023-03-30T16:53:44.712Z,58.69
2023-03-30T16:56:18.997Z,58.76
2023-03-30T16:58:47.073Z,58.89
2023-03-30T17:01:18.619Z,58.81
2023-03-30T17:03:46.859Z,56.63
2023-03-30T17:06:14.258Z,56.73
2023-03-30T17:08:42.908Z,57.08
2023-03-30T17:11:13.579Z,58.40
2023-03-30T17:13:41.104Z,58.55
2023-03-30T17:16:11.289Z,58.69
2023-03-30T17:18:38.155Z,58.10
2023-03-30T17:21:05.621Z,58.52
2023-03-30T17:23:33.231Z,58.53
2023-03-30T17:26:01.500Z,59.23
2023-03-30T17:28:34.208Z,59.34
2023-03-30T17:31:03.819Z,59.62
2023-03-30T17:33:35.566Z,59.90
2023-03-30T17:36:12.543Z,59.30
2023-03-30T17:38:41.015Z,58.24
2023-03-30T17:41:12.473Z,58.52
2023-03-30T17:43:41.037Z,58.90
2023-03-30T17:46:08.103Z,59.96
2023-03-30T17:48:35.190Z,58.80
2023-03-30T17:51:02.227Z,58.26
2023-03-30T17:53:29.114Z,58.99
2023-03-30T17:56:14.832Z,57.35
2023-03-30T17:58:41.765Z,60.23
2023-03-30T18:01:10.052Z,56.57
2023-03-30T18:03:39.319Z,56.72
2023-03-30T18:06:06.535Z,59.50
2023-03-30T18:08:33.568Z,59.95
2023-03-30T18:11:01.379Z,60.55
2023-03-30T18:13:29.734Z,62.09
2023-03-30T18:15:58.891Z,62.35
2023-03-30T18:18:28.685Z,63.48
2023-03-30T18:20:59.045Z,62.90
2023-03-30T18:23:26.010Z,62.96
2023-03-30T18:25:52.932Z,63.19
2023-03-30T18:28:22.530Z,63.18
2023-03-30T18:30:51.144Z,64.00
2023-03-30T18:33:18.208Z,64.64
2023-03-30T18:35:51.175Z,64.47
2023-03-30T18:38:21.205Z,64.91
2023-03-30T18:40:50.589Z,65.73
2023-03-30T18:43:17.778Z,65.98
2023-03-30T18:45:46.598Z,65.83
2023-03-30T18:48:15.849Z,66.84
2023-03-30T18:50:45.998Z,65.97
2023-03-30T18:53:15.555Z,67.44
2023-03-30T18:55:48.023Z,67.02
2023-03-30T18:58:21.177Z,67.75
2023-03-30T19:00:49.784Z,69.08
2023-03-30T19:03:17.857Z,68.63
2023-03-30T19:05:46.026Z,66.22
2023-03-30T19:08:18.422Z,67.36
2023-03-30T19:10:48.312Z,66.44
2023-03-30T19:13:16.980Z,66.34
2023-03-30T19:15:47.586Z,67.08
2023-03-30T19:18:15.183Z,66.34
2023-03-30T19:20:42.587Z,67.21
2023-03-30T19:23:16.783Z,67.21
2023-03-30T19:25:44.802Z,67.52
2023-03-30T19:28:12.387Z,68.91
2023-03-30T19:41:48.268Z,65.56
2023-03-30T19:44:15.189Z,64.25
2023-03-30T19:46:42.716Z,64.66
2023-03-30T19:49:09.841Z,65.29
2023-03-30T19:51:36.739Z,63.81
2023-03-30T19:54:03.712Z,64.47
2023-03-30T19:56:30.598Z,63.83
2023-03-30T19:58:58.879Z,63.25
2023-03-30T20:01:25.775Z,64.71
2023-03-30T20:03:55.221Z,65.14
2023-03-30T20:06:22.162Z,66.07
2023-03-30T20:08:49.042Z,66.17
2023-03-30T20:11:16.375Z,65.74
2023-03-30T20:13:46.001Z,66.24
2023-03-30T20:16:20.444Z,66.42
2023-03-30T20:18:53.309Z,65.30
2023-03-30T20:21:22.656Z,66.01
2023-03-30T20:23:49.773Z,66.50
2023-03-30T20:26:19.462Z,66.42
2023-03-30T20:28:47.410Z,67.76
2023-03-30T20:31:15.244Z,67.78
2023-03-30T20:33:42.428Z,66.75
2023-03-30T20:36:10.485Z,66.54
2023-03-30T20:38:39.783Z,64.16
2023-03-30T20:41:07.376Z,62.58
2023-03-30T20:43:40.553Z,60.70
2023-03-30T20:46:15.434Z,60.21
2023-03-30T20:48:43.042Z,59.89
2023-03-30T20:51:12.580Z,61.99
2023-03-30T20:53:43.712Z,62.99
2023-03-30T20:56:11.113Z,65.58
2023-03-30T20:58:39.400Z,64.19
2023-03-30T21:01:18.945Z,63.71
2023-03-30T21:03:50.211Z,63.51
2023-03-30T21:06:19.802Z,63.90
2023-03-30T21:08:48.137Z,62.54
2023-03-30T21:11:14.960Z,63.75
2023-03-30T21:13:42.097Z,60.87
2023-03-30T21:16:09.036Z,61.48
2023-03-30T21:18:36.091Z,62.17
2023-03-30T21:21:03.568Z,61.13
2023-03-30T21:23:30.759Z,62.18
2023-03-30T21:26:02.639Z,62.63
2023-03-30T21:28:30.960Z,61.71
2023-03-30T21:30:58.709Z,61.48
2023-03-30T21:33:27.757Z,60.24
2023-03-30T21:35:56.696Z,60.03
2023-03-30T21:38:24.911Z,59.47
2023-03-30T21:41:06.582Z,55.76
2023-03-30T21:43:38.944Z,56.46
2023-03-30T21:46:09.068Z,56.50
2023-03-30T21:48:39.195Z,56.30
2023-03-30T21:51:19.519Z,57.38
2023-03-30T21:53:57.545Z,55.89
2023-03-30T21:56:31.186Z,57.05
2023-03-30T21:59:10.839Z,58.98
2023-03-30T22:01:48.465Z,56.57
2023-03-30T22:04:18.404Z,57.27
2023-03-30T22:06:46.024Z,57.91
2023-03-30T22:09:12.998Z,56.04
2023-03-30T22:11:45.834Z,56.98
2023-03-30T22:14:19.223Z,58.68
2023-03-30T22:16:47.183Z,57.76
2023-03-30T22:19:32.795Z,57.88
2023-03-30T22:21:59.732Z,59.22
2023-03-30T22:24:27.045Z,59.23
2023-03-30T22:26:54.413Z,59.21
2023-03-30T22:29:23.327Z,61.06
2023-03-30T22:31:51.889Z,61.08
2023-03-30T22:34:19.228Z,61.12
2023-03-30T22:36:46.139Z,61.16
2023-03-30T22:39:13.129Z,62.28
2023-03-30T22:41:42.227Z,61.49
2023-03-30T22:44:11.256Z,62.71
2023-03-30T22:46:38.456Z,63.67
2023-03-30T22:49:05.327Z,64.06
2023-03-30T22:51:34.846Z,64.67
2023-03-30T22:54:01.807Z,65.40
2023-03-30T22:56:30.362Z,66.10
2023-03-30T22:58:59.028Z,65.71
2023-03-30T23:01:26.136Z,67.00
2023-03-30T23:03:54.571Z,67.46
2023-03-30T23:06:22.577Z,67.75
2023-03-30T23:08:49.742Z,68.46
2023-03-30T23:11:17.414Z,69.03
2023-03-30T23:13:44.488Z,68.70
2023-03-30T23:16:11.764Z,68.04
2023-03-30T23:18:39.363Z,69.03
2023-03-30T23:21:07.612Z,68.53
2023-03-30T23:23:38.671Z,68.32
2023-03-30T23:26:11.245Z,69.40
2023-03-30T23:28:40.372Z,70.16
2023-03-30T23:31:16.147Z,68.07
2023-03-30T23:33:43.745Z,66.48
2023-03-30T23:36:14.151Z,67.12
2023-03-30T23:38:43.828Z,67.63
2023-03-30T23:41:13.979Z,66.23
2023-03-30T23:43:41.192Z,65.09
2023-03-30T23:46:10.105Z,66.77
2023-03-30T23:48:37.512Z,64.44
2023-03-30T23:51:05.074Z,64.73
2023-03-30T23:53:33.609Z,64.59
2023-03-30T23:56:05.967Z,65.33
2023-03-30T23:58:33.732Z,62.51
